Terminal Aerodrome Forecast
Issued by NWS

Home | Current Version | Previous Version | Graphics & Text | Print | Product List | Glossary On
Versions: 1 2 3 4 5 6 7 8 9 10 11 12 13 14 15 16
000
FTUS45 KGGW 272020 AAA
TAFSDY
TAF AMD
KSDY 272020Z 2720/2818 06013G19KT P6SM VCSH SCT025 OVC035
     FM280100 35006KT P6SM SCT030 OVC070
      AMD LTD TO CLD VIS AND WIND=

USA.gov is the U.S. government's official web portal to all federal, state and local government web resources and services.